Time;durP1;ratioP1;P1;durP2;ratioP2;P2;SDS_P1;SDS_P2;PMS_P1;PMS_P2;Temp;Humidity;BMP_temperature;BMP_pressure;BME280_temperature;BME280_humidity;BME280_pressure;Samples;Min_cycle;Max_cycle;Signal;HPM_P1;HPM_P2
2022/02/17 00:01:07;;;;;;;0.60;0.47;;;13.70;99.90;;;;;;5026747;28;20201;-87
2022/02/17 00:03:33;;;;;;;0.50;0.40;;;13.50;99.90;;;;;;5025899;28;20186;-87
2022/02/17 00:05:59;;;;;;;0.63;0.40;;;13.50;99.90;;;;;;5027395;28;20607;-87
2022/02/17 00:08:25;;;;;;;0.60;0.40;;;13.40;99.90;;;;;;5044860;28;20505;-86
2022/02/17 00:10:50;;;;;;;0.60;0.50;;;13.30;99.90;;;;;;5025122;28;20221;-87
2022/02/17 00:13:16;;;;;;;0.60;0.40;;;13.60;99.90;;;;;;5031485;28;20799;-87
2022/02/17 00:15:42;;;;;;;0.60;0.47;;;13.90;99.90;;;;;;5027182;28;20187;-87
2022/02/17 00:18:21;;;;;;;0.60;0.40;;;13.80;99.90;;;;;;5025844;28;20457;-86
2022/02/17 00:20:53;;;;;;;0.60;0.50;;;13.60;99.90;;;;;;5025615;28;20194;-87
2022/02/17 00:23:19;;;;;;;0.60;0.40;;;13.70;99.90;;;;;;5033045;28;20189;-87
2022/02/17 00:25:44;;;;;;;0.50;0.40;;;13.70;99.90;;;;;;5027772;28;20638;-87
2022/02/17 00:28:10;;;;;;;0.60;0.40;;;13.90;99.90;;;;;;5039764;28;20470;-86
2022/02/17 00:30:36;;;;;;;0.60;0.50;;;13.70;99.90;;;;;;5033642;28;20182;-85
2022/02/17 00:33:01;;;;;;;0.60;0.40;;;14.00;99.90;;;;;;5012443;28;20453;-87
2022/02/17 00:35:27;;;;;;;0.60;0.50;;;13.80;99.90;;;;;;5036049;28;20654;-86
2022/02/17 00:37:53;;;;;;;0.60;0.50;;;13.40;99.90;;;;;;5029885;28;20296;-87
2022/02/17 00:40:18;;;;;;;0.60;0.40;;;13.70;99.90;;;;;;5032553;28;20185;-87
2022/02/17 00:42:44;;;;;;;0.60;0.50;;;13.60;99.90;;;;;;5026628;28;20189;-87
2022/02/17 00:45:10;;;;;;;0.60;0.40;;;13.80;99.90;;;;;;5026854;28;20228;-87
2022/02/17 00:47:35;;;;;;;0.60;0.43;;;13.80;99.90;;;;;;5023872;28;20300;-86
2022/02/17 00:50:01;;;;;;;0.60;0.50;;;14.00;99.90;;;;;;5027605;28;20182;-87
2022/02/17 00:52:26;;;;;;;0.60;0.40;;;13.80;99.90;;;;;;5032168;28;20186;-86
2022/02/17 00:54:52;;;;;;;0.60;0.43;;;13.60;99.90;;;;;;5027782;28;20641;-87
2022/02/17 00:57:18;;;;;;;0.60;0.40;;;13.30;99.90;;;;;;5024096;28;20220;-87
2022/02/17 00:59:43;;;;;;;0.60;0.50;;;13.90;99.90;;;;;;5029315;28;20520;-87
2022/02/17 01:02:09;;;;;;;0.60;0.40;;;14.00;99.90;;;;;;5025026;28;20548;-87
2022/02/17 01:04:35;;;;;;;0.60;0.50;;;13.60;99.90;;;;;;5015591;28;20186;-87
2022/02/17 01:07:00;;;;;;;0.60;0.50;;;13.60;99.90;;;;;;5022892;28;20744;-87
2022/02/17 01:09:26;;;;;;;0.50;0.40;;;13.60;99.90;;;;;;5037701;28;20246;-86
2022/02/17 01:11:51;;;;;;;0.60;0.47;;;13.90;99.90;;;;;;5040569;28;20186;-86
2022/02/17 01:14:17;;;;;;;0.60;0.40;;;14.00;99.90;;;;;;5034942;28;20222;-86
2022/02/17 01:16:43;;;;;;;0.60;0.47;;;14.10;99.90;;;;;;5036469;28;20211;-87
2022/02/17 01:19:09;;;;;;;0.97;0.50;;;13.90;99.90;;;;;;5013106;28;20186;-86
2022/02/17 01:21:34;;;;;;;0.60;0.60;;;13.60;99.90;;;;;;5027447;28;20453;-87
2022/02/17 01:24:00;;;;;;;0.60;0.40;;;13.40;99.90;;;;;;5034302;28;20189;-87
2022/02/17 01:26:26;;;;;;;0.67;0.50;;;13.10;99.90;;;;;;5033868;28;20224;-86
2022/02/17 01:28:51;;;;;;;0.57;0.50;;;13.50;99.90;;;;;;5030884;28;20427;-86
2022/02/17 01:31:18;;;;;;;0.50;0.40;;;12.80;99.90;;;;;;5031115;28;20204;-86
2022/02/17 01:33:44;;;;;;;0.90;0.50;;;13.10;99.90;;;;;;5029528;28;20185;-87
2022/02/17 01:36:10;;;;;;;0.60;0.40;;;12.90;99.90;;;;;;5037412;28;20220;-87
2022/02/17 01:38:40;;;;;;;0.57;0.40;;;13.00;99.90;;;;;;5033025;28;20190;-86
2022/02/17 01:41:07;;;;;;;0.65;0.50;;;12.90;99.90;;;;;;5035240;28;20566;-86
2022/02/17 01:43:34;;;;;;;1.02;0.43;;;13.00;99.90;;;;;;5031102;28;20284;-86
2022/02/17 01:46:01;;;;;;;0.63;0.50;;;13.30;99.90;;;;;;5028390;28;20182;-86
2022/02/17 01:48:27;;;;;;;0.60;0.40;;;12.70;99.90;;;;;;5028571;28;20266;-85
2022/02/17 01:50:52;;;;;;;0.60;0.40;;;12.90;99.90;;;;;;5030486;28;20179;-86
2022/02/17 01:53:18;;;;;;;0.60;0.40;;;13.20;99.90;;;;;;5026402;28;20184;-87
2022/02/17 01:55:48;;;;;;;0.70;0.50;;;13.30;99.90;;;;;;5027685;28;20532;-86
2022/02/17 01:58:14;;;;;;;0.60;0.40;;;12.80;99.90;;;;;;5031302;28;20657;-87
2022/02/17 02:00:41;;;;;;;0.60;0.50;;;13.00;99.90;;;;;;5018240;28;20189;-86
2022/02/17 02:03:08;;;;;;;0.50;0.40;;;12.80;99.90;;;;;;5024728;28;20284;-87
2022/02/17 02:05:34;;;;;;;0.60;0.40;;;12.90;99.90;;;;;;5033332;28;20194;-87
2022/02/17 02:08:00;;;;;;;0.60;0.50;;;13.20;99.90;;;;;;5028132;28;20210;-87
2022/02/17 02:10:26;;;;;;;0.50;0.50;;;13.10;99.90;;;;;;5024865;28;20988;-86
2022/02/17 02:12:52;;;;;;;0.85;0.85;;;13.10;99.90;;;;;;5031491;28;20227;-87
2022/02/17 02:15:17;;;;;;;0.60;0.40;;;13.10;99.90;;;;;;5035718;28;20232;-86
2022/02/17 02:17:44;;;;;;;0.80;0.50;;;12.70;99.90;;;;;;5022019;28;20206;-86
2022/02/17 02:20:16;;;;;;;0.60;0.40;;;13.10;99.90;;;;;;5037428;28;20206;-85
2022/02/17 02:22:41;;;;;;;1.00;0.50;;;12.70;99.90;;;;;;5025356;28;20563;-87
2022/02/17 02:25:07;;;;;;;0.60;0.50;;;12.70;99.90;;;;;;5039413;28;20195;-87
2022/02/17 02:27:33;;;;;;;0.60;0.40;;;12.60;99.90;;;;;;5029271;28;20210;-86
2022/02/17 02:29:58;;;;;;;0.70;0.40;;;12.50;99.90;;;;;;5037124;28;20617;-87
2022/02/17 02:32:24;;;;;;;0.83;0.50;;;12.80;99.90;;;;;;5034957;28;20638;-87
2022/02/17 02:34:49;;;;;;;0.70;0.40;;;12.50;99.90;;;;;;5028250;28;20186;-87
2022/02/17 02:37:15;;;;;;;1.03;0.50;;;12.50;99.90;;;;;;5033918;28;20281;-87
2022/02/17 02:39:40;;;;;;;0.60;0.50;;;12.60;99.90;;;;;;5034527;28;20221;-87
2022/02/17 02:42:06;;;;;;;0.60;0.40;;;12.30;99.90;;;;;;5028600;28;20182;-87
2022/02/17 02:44:32;;;;;;;1.73;0.50;;;12.30;99.90;;;;;;5034040;28;20649;-87
2022/02/17 02:46:58;;;;;;;1.10;0.50;;;12.50;99.90;;;;;;5030551;28;20513;-87
2022/02/17 02:49:24;;;;;;;1.03;0.40;;;12.10;99.90;;;;;;5023311;28;20219;-87
2022/02/17 02:51:49;;;;;;;1.43;0.50;;;12.50;99.90;;;;;;5029878;28;20192;-86
2022/02/17 02:54:15;;;;;;;0.60;0.50;;;12.40;99.90;;;;;;5032572;28;20185;-87
2022/02/17 02:56:42;;;;;;;1.40;0.60;;;12.30;99.90;;;;;;5030880;28;21512;-87
2022/02/17 02:59:08;;;;;;;0.50;0.40;;;12.60;99.90;;;;;;5030518;28;20535;-86
2022/02/17 03:01:33;;;;;;;0.50;0.40;;;12.70;99.90;;;;;;5019655;28;20275;-87
2022/02/17 03:03:59;;;;;;;0.50;0.40;;;12.30;99.90;;;;;;5021685;28;20513;-87
2022/02/17 03:06:25;;;;;;;0.50;0.40;;;12.10;99.90;;;;;;5028335;28;20692;-87
2022/02/17 03:08:51;;;;;;;0.60;0.40;;;12.60;99.90;;;;;;5042379;28;20458;-87
2022/02/17 03:11:16;;;;;;;0.50;0.40;;;12.10;99.90;;;;;;5027172;28;20278;-86
2022/02/17 03:13:42;;;;;;;0.60;0.50;;;12.50;99.90;;;;;;5027230;28;20287;-87
2022/02/17 03:16:07;;;;;;;1.53;0.50;;;12.20;99.90;;;;;;5028360;28;20199;-87
2022/02/17 03:18:33;;;;;;;0.83;0.50;;;11.80;99.90;;;;;;5028863;28;20184;-86
2022/02/17 03:20:59;;;;;;;0.70;0.40;;;12.10;99.90;;;;;;5031953;28;20670;-86
2022/02/17 03:23:24;;;;;;;0.90;0.43;;;12.60;99.90;;;;;;5036837;28;20189;-87
2022/02/17 03:25:51;;;;;;;0.60;0.50;;;12.20;99.90;;;;;;5030339;28;20241;-87
2022/02/17 03:28:17;;;;;;;0.60;0.50;;;12.30;99.90;;;;;;5036030;28;20209;-87
2022/02/17 03:30:42;;;;;;;0.50;0.40;;;12.20;99.90;;;;;;5030956;28;20189;-87
2022/02/17 03:33:09;;;;;;;2.03;0.50;;;12.40;99.90;;;;;;5015325;28;20186;-87
2022/02/17 03:35:34;;;;;;;0.60;0.50;;;12.80;99.90;;;;;;5030099;28;20199;-86
2022/02/17 03:38:00;;;;;;;0.60;0.50;;;12.70;99.90;;;;;;5029939;28;20277;-86
2022/02/17 03:40:26;;;;;;;0.60;0.50;;;12.60;99.90;;;;;;5027877;28;20196;-87
2022/02/17 03:42:52;;;;;;;0.65;0.50;;;12.50;99.90;;;;;;5023194;28;20192;-87
2022/02/17 03:45:17;;;;;;;0.50;0.40;;;12.20;99.90;;;;;;5036518;28;20190;-86
2022/02/17 03:47:43;;;;;;;0.90;0.50;;;12.30;99.90;;;;;;5022893;28;20697;-87
2022/02/17 03:50:10;;;;;;;0.70;0.50;;;12.30;99.90;;;;;;5024387;28;20216;-86
2022/02/17 03:52:37;;;;;;;0.70;0.40;;;12.40;99.90;;;;;;5044927;28;20239;-86
2022/02/17 03:55:04;;;;;;;0.60;0.43;;;12.30;99.90;;;;;;5030231;28;20181;-87
2022/02/17 03:57:29;;;;;;;0.63;0.55;;;12.40;99.90;;;;;;5027996;28;20229;-87
2022/02/17 03:59:55;;;;;;;0.60;0.60;;;12.40;99.90;;;;;;5024575;28;20220;-86
2022/02/17 04:02:20;;;;;;;0.90;0.43;;;12.50;99.90;;;;;;5028151;28;20196;-87
2022/02/17 04:04:46;;;;;;;0.60;0.50;;;12.50;99.90;;;;;;5045857;28;20199;-87
2022/02/17 04:07:14;;;;;;;0.60;0.50;;;12.40;99.90;;;;;;5025963;28;20241;-87
2022/02/17 04:09:40;;;;;;;1.02;0.50;;;12.20;99.90;;;;;;5032328;28;20185;-87
2022/02/17 04:12:06;;;;;;;0.50;0.40;;;12.30;99.90;;;;;;5026399;28;20242;-86
2022/02/17 04:14:31;;;;;;;0.60;0.40;;;12.50;99.90;;;;;;5037223;28;20205;-87
2022/02/17 04:16:57;;;;;;;0.67;0.50;;;12.90;99.90;;;;;;5035935;28;20278;-86
2022/02/17 04:19:22;;;;;;;1.57;0.60;;;12.50;99.90;;;;;;5030192;28;20190;-87
2022/02/17 04:21:48;;;;;;;0.57;0.43;;;12.70;99.90;;;;;;5029541;28;20182;-87
2022/02/17 04:24:14;;;;;;;0.60;0.40;;;12.50;99.90;;;;;;5031606;28;20303;-85
2022/02/17 04:26:39;;;;;;;0.50;0.40;;;12.50;99.90;;;;;;5031435;28;20205;-87
2022/02/17 04:29:05;;;;;;;0.60;0.50;;;12.90;99.90;;;;;;5026311;28;20599;-87
2022/02/17 04:31:31;;;;;;;0.80;0.60;;;12.40;99.90;;;;;;5023635;28;20635;-87
2022/02/17 04:33:56;;;;;;;0.60;0.40;;;12.50;99.90;;;;;;5025190;28;20650;-87
2022/02/17 04:36:22;;;;;;;0.63;0.50;;;12.70;99.90;;;;;;5021840;28;20209;-87
2022/02/17 04:38:47;;;;;;;2.10;0.70;;;12.80;99.90;;;;;;5029256;28;20184;-88
2022/02/17 04:43:57;;;;;;;2.30;1.40;;;12.60;99.90;;;;;;5032810;28;20264;-87
2022/02/17 04:46:23;;;;;;;1.87;1.77;;;12.10;99.90;;;;;;5022026;28;20217;-87
2022/02/17 04:48:49;;;;;;;0.80;0.60;;;12.40;99.90;;;;;;5025503;28;20178;-87
2022/02/17 04:51:15;;;;;;;1.80;0.90;;;12.50;99.90;;;;;;5023258;28;20281;-87
2022/02/17 04:53:41;;;;;;;0.80;0.80;;;13.00;99.90;;;;;;5029359;28;20276;-87
2022/02/17 04:56:06;;;;;;;0.90;0.60;;;13.00;99.90;;;;;;5033114;28;20284;-87
2022/02/17 04:58:33;;;;;;;1.37;1.23;;;12.90;99.90;;;;;;5019528;28;20232;-86
2022/02/17 05:00:58;;;;;;;1.35;0.50;;;12.60;99.90;;;;;;5023596;28;20451;-86
2022/02/17 05:03:24;;;;;;;1.70;1.47;;;12.70;99.90;;;;;;5030705;28;20198;-87
2022/02/17 05:05:54;;;;;;;1.67;1.50;;;12.60;99.90;;;;;;5022739;28;20199;-87
2022/02/17 05:08:20;;;;;;;1.98;1.85;;;12.90;99.90;;;;;;5029290;28;20271;-87
2022/02/17 05:10:47;;;;;;;0.77;0.77;;;12.80;99.90;;;;;;5029246;28;20190;-87
2022/02/17 05:13:13;;;;;;;0.73;0.65;;;12.80;99.90;;;;;;5028846;28;20189;-87
2022/02/17 05:15:38;;;;;;;1.00;0.90;;;12.60;99.90;;;;;;5023432;28;20194;-87
2022/02/17 05:18:04;;;;;;;0.70;0.70;;;12.60;99.90;;;;;;5027207;28;20467;-87
2022/02/17 05:20:30;;;;;;;1.53;0.90;;;12.30;99.90;;;;;;5045708;28;20190;-86
2022/02/17 05:22:55;;;;;;;0.80;0.67;;;12.50;99.90;;;;;;5029231;28;20953;-87
2022/02/17 05:25:21;;;;;;;0.70;0.43;;;12.40;99.90;;;;;;5031510;28;20185;-87
2022/02/17 05:27:47;;;;;;;0.90;0.50;;;12.70;99.90;;;;;;5023544;28;20218;-87
2022/02/17 05:30:12;;;;;;;1.90;0.57;;;12.50;99.90;;;;;;5031636;28;20562;-87
2022/02/17 05:32:42;;;;;;;0.80;0.80;;;12.70;99.90;;;;;;5022569;28;20642;-86
2022/02/17 05:35:09;;;;;;;0.60;0.60;;;13.10;99.90;;;;;;5028162;28;20181;-87
2022/02/17 05:37:36;;;;;;;1.52;1.00;;;13.00;99.90;;;;;;5028242;28;20216;-82
2022/02/17 05:40:03;;;;;;;1.00;0.60;;;13.10;99.90;;;;;;5025246;28;20195;-86
2022/02/17 05:42:28;;;;;;;0.93;0.60;;;12.80;99.90;;;;;;5029320;28;20210;-86
2022/02/17 05:44:54;;;;;;;0.80;0.63;;;13.00;99.90;;;;;;5031411;28;20688;-86
2022/02/17 05:47:19;;;;;;;0.90;0.70;;;12.80;99.90;;;;;;5027217;28;20228;-86
2022/02/17 05:49:45;;;;;;;1.90;1.00;;;13.00;99.90;;;;;;5016100;28;20193;-87
2022/02/17 05:52:11;;;;;;;1.10;0.40;;;13.00;99.90;;;;;;5030607;28;20194;-88
2022/02/17 05:54:36;;;;;;;0.70;0.50;;;13.00;99.90;;;;;;5027389;28;20225;-86
2022/02/17 05:57:02;;;;;;;0.70;0.50;;;12.90;99.90;;;;;;5034979;28;20478;-86
2022/02/17 05:59:27;;;;;;;3.30;2.43;;;12.80;99.90;;;;;;5022940;28;20217;-86
2022/02/17 06:01:53;;;;;;;1.30;0.60;;;12.70;99.90;;;;;;5028761;28;20221;-87
2022/02/17 06:04:18;;;;;;;1.37;0.60;;;12.90;99.90;;;;;;5031334;28;20669;-87
2022/02/17 06:06:44;;;;;;;0.90;0.60;;;12.70;99.90;;;;;;5026544;28;20726;-86
2022/02/17 06:09:09;;;;;;;1.00;0.50;;;13.10;99.90;;;;;;5047351;28;20307;-87
2022/02/17 06:11:35;;;;;;;2.90;1.87;;;13.10;99.90;;;;;;5037202;28;20194;-86
2022/02/17 06:14:01;;;;;;;1.13;0.70;;;13.10;99.90;;;;;;5028379;28;20182;-87
2022/02/17 06:16:26;;;;;;;1.63;0.77;;;13.00;99.90;;;;;;5042073;28;20204;-86
2022/02/17 06:18:52;;;;;;;2.07;0.70;;;12.70;99.90;;;;;;5025621;28;20493;-85
2022/02/17 06:21:17;;;;;;;1.27;0.70;;;12.70;99.90;;;;;;5011214;28;20567;-86
2022/02/17 06:23:43;;;;;;;1.13;0.90;;;12.70;99.90;;;;;;5031830;28;20515;-86
2022/02/17 06:26:09;;;;;;;4.20;1.00;;;13.10;99.90;;;;;;5034113;28;20215;-91
2022/02/17 06:28:36;;;;;;;2.20;1.38;;;12.70;99.90;;;;;;5031061;28;20214;-86
2022/02/17 06:31:02;;;;;;;2.97;1.40;;;12.60;99.90;;;;;;5049621;22;20256;-81
2022/02/17 06:33:28;;;;;;;1.25;0.90;;;12.70;99.90;;;;;;5056755;28;20189;-81
2022/02/17 06:35:53;;;;;;;3.70;1.77;;;12.50;99.90;;;;;;5060606;28;20644;-81
2022/02/17 06:38:19;;;;;;;2.97;1.30;;;12.80;99.90;;;;;;5067534;28;20504;-78
2022/02/17 06:40:45;;;;;;;2.60;1.10;;;13.00;99.90;;;;;;5056781;28;20211;-80
2022/02/17 06:43:12;;;;;;;2.33;0.87;;;12.90;99.90;;;;;;5032278;28;20563;-79
2022/02/17 06:45:40;;;;;;;3.20;1.35;;;12.90;99.90;;;;;;5042573;28;20184;-79
2022/02/17 06:48:06;;;;;;;2.55;1.27;;;12.50;99.90;;;;;;5030145;28;20705;-81
2022/02/17 06:50:33;;;;;;;1.92;1.08;;;12.40;99.90;;;;;;5038689;28;20235;-81
2022/02/17 06:52:59;;;;;;;6.20;1.13;;;12.80;99.90;;;;;;5051733;28;20178;-80
2022/02/17 06:55:24;;;;;;;3.80;1.50;;;12.70;99.90;;;;;;5043744;28;20192;-85
2022/02/17 06:57:50;;;;;;;2.40;1.33;;;12.40;99.90;;;;;;5049935;28;20665;-85
2022/02/17 07:00:16;;;;;;;5.03;1.57;;;12.70;99.90;;;;;;5043902;28;20196;-86
2022/02/17 07:02:52;;;;;;;3.40;1.23;;;12.50;99.90;;;;;;5037279;28;20189;-85
2022/02/17 07:05:19;;;;;;;7.38;1.48;;;12.80;99.90;;;;;;5047218;28;20185;-86
2022/02/17 07:07:44;;;;;;;7.95;4.50;;;11.90;99.90;;;;;;5053311;28;20207;-88
2022/02/17 07:10:10;;;;;;;5.10;1.40;;;12.80;99.90;;;;;;5046816;28;20214;-88
2022/02/17 07:12:36;;;;;;;3.30;1.60;;;12.60;99.90;;;;;;5037035;28;20260;-82
2022/02/17 07:15:02;;;;;;;4.50;1.70;;;12.40;99.90;;;;;;5039573;28;20204;-82
2022/02/17 07:17:28;;;;;;;7.90;2.58;;;12.30;99.90;;;;;;5037347;28;20186;-81
2022/02/17 07:19:53;;;;;;;4.30;2.50;;;12.80;99.90;;;;;;5035954;28;20183;-80
2022/02/17 07:22:19;;;;;;;3.70;1.27;;;13.50;99.90;;;;;;5037903;28;20439;-81
2022/02/17 07:24:45;;;;;;;3.43;1.60;;;13.10;99.90;;;;;;5041220;28;20221;-81
2022/02/17 07:27:11;;;;;;;4.35;1.98;;;12.50;99.90;;;;;;5041498;28;20293;-81
2022/02/17 07:29:36;;;;;;;6.50;1.63;;;12.40;99.90;;;;;;5029333;28;20321;-84
2022/02/17 07:32:07;;;;;;;2.73;1.50;;;12.80;99.90;;;;;;5036582;28;20342;-81
2022/02/17 07:34:33;;;;;;;6.45;1.75;;;12.40;99.90;;;;;;5031929;28;20189;-81
2022/02/17 07:36:58;;;;;;;5.77;1.63;;;12.50;99.90;;;;;;5047853;28;20245;-83
2022/02/17 07:39:24;;;;;;;4.37;2.03;;;12.40;99.90;;;;;;5043885;28;20196;-83
2022/02/17 07:41:50;;;;;;;6.70;2.13;;;12.40;99.90;;;;;;5044348;28;20368;-81
2022/02/17 07:44:15;;;;;;;2.80;1.47;;;12.50;99.90;;;;;;5038440;28;20185;-82
2022/02/17 07:46:41;;;;;;;3.97;1.50;;;12.40;99.90;;;;;;5041690;28;20589;-87
2022/02/17 07:49:06;;;;;;;2.63;1.60;;;12.40;99.90;;;;;;5045158;28;20182;-80
2022/02/17 07:51:34;;;;;;;4.20;1.93;;;12.30;99.90;;;;;;5044309;28;20664;-81
2022/02/17 07:54:00;;;;;;;5.32;1.80;;;12.60;99.90;;;;;;5045526;28;20687;-82
2022/02/17 07:56:30;;;;;;;4.15;1.58;;;12.70;99.90;;;;;;5048674;28;20704;-92
2022/02/17 07:58:56;;;;;;;2.00;1.38;;;12.20;99.90;;;;;;5041114;28;20217;-81
2022/02/17 08:01:21;;;;;;;3.80;1.50;;;12.20;99.90;;;;;;5028391;28;20656;-81
2022/02/17 08:03:47;;;;;;;3.57;1.73;;;12.40;99.90;;;;;;5041368;28;20181;-82
2022/02/17 08:06:12;;;;;;;4.73;1.60;;;12.90;99.90;;;;;;5035156;28;20269;-81
2022/02/17 08:08:39;;;;;;;4.03;1.50;;;12.20;99.90;;;;;;5041942;28;20581;-82
2022/02/17 08:11:05;;;;;;;4.28;1.25;;;12.40;99.90;;;;;;5034879;28;20210;-83
2022/02/17 08:13:31;;;;;;;3.65;1.40;;;12.80;99.90;;;;;;5034705;28;20209;-82
2022/02/17 08:15:56;;;;;;;4.50;1.20;;;12.50;99.90;;;;;;5045660;28;20259;-82
2022/02/17 08:18:22;;;;;;;4.33;1.70;;;12.50;99.90;;;;;;5036345;28;20190;-82
2022/02/17 08:20:49;;;;;;;4.00;1.70;;;12.60;99.90;;;;;;5042424;28;20225;-84
2022/02/17 08:23:15;;;;;;;4.85;2.15;;;12.40;99.90;;;;;;5039194;28;20439;-81
2022/02/17 08:25:40;;;;;;;6.43;1.80;;;13.20;99.90;;;;;;5037805;28;20190;-83
2022/02/17 08:28:06;;;;;;;4.70;1.90;;;13.20;99.90;;;;;;5032352;28;20458;-80
2022/02/17 08:30:36;;;;;;;5.27;1.83;;;12.40;99.30;;;;;;5033561;28;20214;-81
2022/02/17 08:33:03;;;;;;;3.88;1.45;;;12.70;98.60;;;;;;5027855;28;20201;-80
2022/02/17 08:35:29;;;;;;;3.85;1.63;;;12.70;98.30;;;;;;5035666;28;20220;-81
2022/02/17 08:37:56;;;;;;;4.85;1.75;;;13.60;98.90;;;;;;5046472;28;20235;-84
2022/02/17 08:40:23;;;;;;;7.63;2.00;;;12.90;97.30;;;;;;5039577;28;20210;-81
2022/02/17 08:42:49;;;;;;;6.00;2.03;;;12.80;97.00;;;;;;5039822;28;20185;-83
2022/02/17 08:45:14;;;;;;;3.17;1.90;;;13.20;96.20;;;;;;5043900;28;20345;-82
2022/02/17 08:47:40;;;;;;;7.63;2.23;;;13.20;95.80;;;;;;5038659;28;22722;-80
2022/02/17 08:50:08;;;;;;;4.25;1.92;;;13.40;95.50;;;;;;5037160;28;20220;-81
2022/02/17 08:52:35;;;;;;;5.68;2.60;;;12.80;95.80;;;;;;5037559;28;20193;-82
2022/02/17 08:55:00;;;;;;;5.10;1.40;;;13.00;95.60;;;;;;5031746;28;20262;-81
2022/02/17 08:57:26;;;;;;;5.70;2.90;;;12.70;95.60;;;;;;5036771;28;20647;-84
2022/02/17 08:59:51;;;;;;;7.37;2.07;;;12.80;94.80;;;;;;5030438;28;20225;-82
2022/02/17 09:02:17;;;;;;;4.87;2.03;;;13.10;95.10;;;;;;5037022;28;20192;-82
2022/02/17 09:04:43;;;;;;;4.83;1.80;;;13.20;94.50;;;;;;5029044;28;20186;-85
2022/02/17 09:07:08;;;;;;;5.40;2.30;;;14.10;93.50;;;;;;5031192;28;20662;-83
2022/02/17 09:09:34;;;;;;;6.27;2.33;;;15.10;91.50;;;;;;5038320;28;20186;-82
2022/02/17 09:11:59;;;;;;;4.13;1.80;;;16.10;89.10;;;;;;5030744;28;20198;-82
2022/02/17 09:14:25;;;;;;;7.40;2.17;;;17.20;86.70;;;;;;5038910;28;20322;-82
2022/02/17 09:16:53;;;;;;;4.77;1.87;;;17.90;82.40;;;;;;5036176;28;20182;-83
2022/02/17 09:19:19;;;;;;;5.10;2.08;;;18.10;81.10;;;;;;5038689;28;20190;-84
2022/02/17 09:21:44;;;;;;;6.27;2.57;;;17.30;80.70;;;;;;5033878;28;20252;-82
2022/02/17 09:24:10;;;;;;;7.07;2.33;;;18.10;79.70;;;;;;5031380;28;20931;-82
2022/02/17 09:26:36;;;;;;;5.60;2.03;;;18.70;78.80;;;;;;5029873;28;20677;-84
2022/02/17 09:29:02;;;;;;;4.38;2.03;;;18.70;76.30;;;;;;5028764;28;20233;-82
2022/02/17 09:31:28;;;;;;;6.90;2.50;;;18.30;72.80;;;;;;5032583;28;20214;-79
2022/02/17 09:33:54;;;;;;;4.17;2.00;;;17.60;71.50;;;;;;5033988;28;20517;-84
2022/02/17 09:36:20;;;;;;;2.90;1.70;;;17.90;71.20;;;;;;5033925;28;20201;-83
2022/02/17 09:38:47;;;;;;;5.50;2.50;;;18.30;68.60;;;;;;5035660;28;20446;-82
2022/02/17 09:41:16;;;;;;;2.90;2.05;;;18.20;67.40;;;;;;5038600;28;20205;-80
2022/02/17 09:43:44;;;;;;;7.55;2.60;;;18.00;66.80;;;;;;5035579;28;20657;-81
2022/02/17 09:46:12;;;;;;;7.65;1.92;;;17.80;67.70;;;;;;5044928;28;20312;-82
2022/02/17 09:48:40;;;;;;;8.82;3.83;;;18.10;66.40;;;;;;5032901;28;20864;-83
2022/02/17 09:51:07;;;;;;;4.47;2.40;;;18.10;66.00;;;;;;5034045;28;20202;-82
2022/02/17 09:53:32;;;;;;;7.53;2.72;;;18.60;66.00;;;;;;5037174;28;20200;-83
2022/02/17 09:55:58;;;;;;;5.23;2.57;;;17.20;65.80;;;;;;5034745;28;20178;-83
2022/02/17 09:58:24;;;;;;;6.90;2.27;;;17.10;68.40;;;;;;5035059;28;20844;-82
2022/02/17 10:00:53;;;;;;;6.53;2.57;;;17.50;68.40;;;;;;5033199;28;20210;-81
2022/02/17 10:03:29;;;;;;;8.00;2.20;;;17.50;67.80;;;;;;5027750;28;20284;-82
2022/02/17 10:06:12;;;;;;;2.65;1.85;;;17.20;67.60;;;;;;5033727;28;20264;-81
2022/02/17 10:08:38;;;;;;;5.78;1.92;;;17.80;67.10;;;;;;5039085;28;20202;-82
2022/02/17 10:11:06;;;;;;;5.25;1.67;;;18.50;67.10;;;;;;5033740;28;20202;-81
2022/02/17 10:13:32;;;;;;;6.43;2.50;;;19.10;66.60;;;;;;5036432;28;20666;-85
2022/02/17 10:15:59;;;;;;;5.00;2.08;;;17.70;67.70;;;;;;5040507;28;20278;-85
2022/02/17 10:18:30;;;;;;;8.18;2.17;;;16.80;70.50;;;;;;5026633;28;20221;-84
2022/02/17 10:21:02;;;;;;;4.82;2.30;;;16.40;74.00;;;;;;5029710;28;20702;-86
2022/02/17 10:23:31;;;;;;;5.20;2.45;;;16.50;78.10;;;;;;5030247;28;20275;-81
2022/02/17 10:25:58;;;;;;;10.48;2.40;;;15.60;79.00;;;;;;5031398;28;20264;-86
2022/02/17 10:28:25;;;;;;;7.10;3.40;;;15.30;79.30;;;;;;5030075;28;20201;-86
2022/02/17 10:30:50;;;;;;;8.93;2.35;;;14.50;81.50;;;;;;5036061;28;20740;-85
2022/02/17 10:33:16;;;;;;;5.27;2.40;;;14.90;82.40;;;;;;5034466;28;20239;-83
2022/02/17 10:35:54;;;;;;;5.97;2.20;;;14.80;85.60;;;;;;5042342;28;20192;-85
2022/02/17 10:38:20;;;;;;;8.68;2.80;;;15.00;84.00;;;;;;5038414;28;20193;-85
2022/02/17 10:40:52;;;;;;;7.03;2.67;;;14.80;85.20;;;;;;5043581;28;20254;-84
2022/02/17 10:43:17;;;;;;;4.55;2.20;;;15.40;85.60;;;;;;5034694;28;20193;-86
2022/02/17 10:45:46;;;;;;;5.07;2.27;;;15.70;82.40;;;;;;5039447;28;20230;-86
2022/02/17 10:48:22;;;;;;;5.80;2.63;;;15.50;81.90;;;;;;5038691;28;20194;-85
2022/02/17 10:51:12;;;;;;;5.80;2.35;;;15.10;82.50;;;;;;5032728;28;20232;-85
2022/02/17 10:53:43;;;;;;;5.32;1.98;;;15.00;84.40;;;;;;5034120;28;20276;-85
2022/02/17 10:56:11;;;;;;;4.43;1.80;;;15.60;82.30;;;;;;5032301;28;20277;-85
2022/02/17 10:58:46;;;;;;;8.73;2.40;;;15.90;81.70;;;;;;5032422;28;20182;-85
2022/02/17 11:01:13;;;;;;;6.20;2.30;;;15.80;80.90;;;;;;5037470;28;20232;-85
2022/02/17 11:03:39;;;;;;;5.18;2.30;;;16.20;80.40;;;;;;5036657;28;20236;-86
2022/02/17 11:06:06;;;;;;;4.53;2.00;;;15.90;77.50;;;;;;5036158;28;20182;-84
2022/02/17 11:08:32;;;;;;;8.95;2.55;;;16.90;77.70;;;;;;5039796;28;20475;-85
2022/02/17 11:10:59;;;;;;;5.43;1.73;;;16.90;77.10;;;;;;5033210;28;20213;-86
2022/02/17 11:13:25;;;;;;;6.13;2.20;;;16.90;76.30;;;;;;5039490;28;20182;-86
2022/02/17 11:15:53;;;;;;;4.82;2.28;;;18.00;74.70;;;;;;5044368;28;20188;-86
2022/02/17 11:18:20;;;;;;;4.53;1.90;;;18.50;73.60;;;;;;5044922;28;20675;-86
2022/02/17 11:20:48;;;;;;;8.65;2.55;;;18.40;70.20;;;;;;5032838;28;20312;-85
2022/02/17 11:23:19;;;;;;;6.00;2.50;;;19.40;72.20;;;;;;5042320;28;20201;-86
2022/02/17 11:25:46;;;;;;;5.20;2.20;;;17.60;68.20;;;;;;5033726;28;20666;-86
2022/02/17 11:28:14;;;;;;;9.40;2.40;;;18.20;67.00;;;;;;5032705;28;20592;-85
2022/02/17 11:30:42;;;;;;;5.10;2.30;;;18.50;68.40;;;;;;5028879;28;20221;-85
2022/02/17 11:33:29;;;;;;;13.48;2.95;;;17.90;67.50;;;;;;5037928;28;20218;-86
2022/02/17 11:36:19;;;;;;;4.57;1.90;;;17.10;64.40;;;;;;5036192;28;20174;-83
2022/02/17 11:38:59;;;;;;;6.97;2.05;;;17.20;65.40;;;;;;5029726;28;20213;-82
2022/02/17 11:41:30;;;;;;;8.50;3.50;;;16.60;65.60;;;;;;5027568;28;20292;-84
2022/02/17 11:44:16;;;;;;;3.80;2.50;;;15.60;67.50;;;;;;5008820;28;20191;-79
2022/02/17 11:46:42;;;;;;;5.57;2.60;;;15.50;69.00;;;;;;5026744;28;20178;-80
2022/02/17 11:49:30;;;;;;;6.73;2.57;;;15.70;70.70;;;;;;5026243;28;20270;-80
2022/02/17 11:52:25;;;;;;;9.85;2.50;;;15.60;70.90;;;;;;5023471;28;20381;-81
2022/02/17 11:55:20;;;;;;;6.78;2.20;;;16.00;71.00;;;;;;5022480;28;20193;-79
2022/02/17 11:57:46;;;;;;;8.57;3.28;;;16.10;69.00;;;;;;5023669;28;20191;-81
2022/02/17 12:00:25;;;;;;;4.70;2.30;;;15.90;70.40;;;;;;5019915;28;20209;-81
2022/02/17 12:02:54;;;;;;;5.57;2.45;;;15.40;69.60;;;;;;5041795;28;20643;-79
2022/02/17 12:05:20;;;;;;;8.27;2.97;;;15.70;69.30;;;;;;5027278;28;20654;-79
2022/02/17 12:07:49;;;;;;;10.13;4.65;;;16.50;71.00;;;;;;5017999;28;20244;-80
2022/02/17 12:10:46;;;;;;;9.27;2.30;;;16.40;70.40;;;;;;5025912;28;20205;-81
2022/02/17 12:13:24;;;;;;;7.07;2.30;;;16.40;70.00;;;;;;5023042;28;20191;-81
2022/02/17 12:15:50;;;;;;;8.45;3.47;;;16.00;71.00;;;;;;5026038;28;20588;-80
2022/02/17 12:18:15;;;;;;;12.10;3.70;;;15.80;70.80;;;;;;5027050;28;20193;-83
2022/02/17 12:20:41;;;;;;;8.13;2.83;;;16.00;72.50;;;;;;5030008;28;20205;-86
2022/02/17 12:23:08;;;;;;;9.60;2.50;;;15.80;73.30;;;;;;5030873;28;20525;-86
2022/02/17 12:25:36;;;;;;;7.63;3.00;;;15.70;75.00;;;;;;5031363;28;20186;-89
2022/02/17 12:28:04;;;;;;;7.10;2.40;;;14.90;75.30;;;;;;5026075;28;20715;-86
2022/02/17 12:30:33;;;;;;;6.90;3.15;;;15.10;73.60;;;;;;5026950;28;20270;-81
2022/02/17 12:33:09;;;;;;;6.47;2.60;;;14.80;75.00;;;;;;5025427;28;21149;-86
2022/02/17 12:35:36;;;;;;;5.72;2.80;;;14.80;74.80;;;;;;5026552;28;20184;-82
2022/02/17 12:38:06;;;;;;;8.65;2.40;;;15.30;75.00;;;;;;5023082;28;20200;-79
2022/02/17 12:40:32;;;;;;;5.57;2.58;;;14.70;73.20;;;;;;5027805;28;20315;-81
2022/02/17 12:42:58;;;;;;;5.38;2.30;;;15.30;74.10;;;;;;5028495;28;20243;-80
2022/02/17 12:45:46;;;;;;;8.87;2.87;;;14.90;73.40;;;;;;5026097;28;20189;-80
2022/02/17 12:48:16;;;;;;;6.97;3.10;;;15.10;74.00;;;;;;5017636;28;20461;-81